Time;durP1;ratioP1;P1;durP2;ratioP2;P2;SDS_P1;SDS_P2;PMS_P1;PMS_P2;Temp;Humidity;BMP_temperature;BMP_pressure;BME280_temperature;BME280_humidity;BME280_pressure;Samples;Min_cycle;Max_cycle;Signal;HPM_P1;HPM_P2
2022/04/14 00:00:43;;;;;;;23.65;14.05;;;23.10;32.60;;;;;;6126855;28;83202;-66
2022/04/14 00:03:44;;;;;;;28.42;15.35;;;23.10;32.60;;;;;;6127205;28;83401;-66
2022/04/14 00:06:44;;;;;;;26.05;14.68;;;23.10;32.60;;;;;;6132903;28;83665;-66
2022/04/14 00:09:45;;;;;;;26.55;14.40;;;23.10;32.60;;;;;;6133642;28;82692;-66
2022/04/14 00:12:48;;;;;;;25.92;14.30;;;23.10;32.60;;;;;;6132027;28;83871;-68
2022/04/14 00:15:48;;;;;;;32.08;15.52;;;23.10;32.60;;;;;;6133428;28;83387;-66
2022/04/14 00:18:49;;;;;;;25.88;14.82;;;23.00;32.50;;;;;;6117917;28;82714;-66
2022/04/14 00:21:49;;;;;;;29.17;15.48;;;23.00;32.50;;;;;;6122042;28;83433;-66
2022/04/14 00:24:50;;;;;;;28.58;15.20;;;23.10;32.50;;;;;;6110425;28;83603;-66
2022/04/14 00:27:50;;;;;;;33.30;15.30;;;23.00;32.50;;;;;;6114699;28;83945;-66
2022/04/14 00:30:51;;;;;;;26.92;14.85;;;23.10;32.60;;;;;;6133413;28;83162;-66
2022/04/14 00:33:51;;;;;;;27.02;15.68;;;23.00;32.50;;;;;;6120041;28;83058;-66
2022/04/14 00:36:52;;;;;;;24.10;13.93;;;23.00;32.50;;;;;;6107252;28;84260;-66
2022/04/14 00:39:52;;;;;;;25.60;14.45;;;23.00;32.60;;;;;;6107564;28;83131;-66
2022/04/14 00:42:53;;;;;;;24.45;13.55;;;23.10;33.30;;;;;;6112155;28;83281;-65
2022/04/14 00:45:53;;;;;;;25.30;14.57;;;23.00;32.60;;;;;;6132680;28;83178;-66
2022/04/14 00:48:54;;;;;;;24.75;14.27;;;23.00;32.70;;;;;;6132756;28;83014;-67
2022/04/14 00:51:54;;;;;;;25.33;13.98;;;23.00;32.70;;;;;;6132632;28;83332;-66
2022/04/14 00:54:55;;;;;;;25.20;13.52;;;23.00;32.80;;;;;;6131534;28;83099;-66
2022/04/14 00:57:55;;;;;;;26.38;14.38;;;23.10;32.80;;;;;;6132239;28;82896;-66
2022/04/14 01:00:56;;;;;;;29.23;13.82;;;23.00;32.90;;;;;;6131974;28;83427;-66
2022/04/14 01:03:56;;;;;;;24.00;13.93;;;23.00;32.80;;;;;;6132050;28;83046;-66
2022/04/14 01:06:57;;;;;;;24.95;13.98;;;23.00;32.80;;;;;;6132030;28;83119;-66
2022/04/14 01:09:57;;;;;;;26.98;13.95;;;23.00;32.90;;;;;;6115574;28;83148;-66
2022/04/14 01:12:58;;;;;;;24.67;13.60;;;23.00;32.80;;;;;;6108038;28;82998;-66
2022/04/14 01:15:58;;;;;;;28.20;15.05;;;23.10;32.90;;;;;;6108076;28;83396;-66
2022/04/14 01:18:59;;;;;;;24.38;13.60;;;23.10;32.90;;;;;;6107855;28;83047;-66
2022/04/14 01:21:59;;;;;;;29.42;14.05;;;23.00;32.90;;;;;;6123582;28;83194;-66
2022/04/14 01:25:00;;;;;;;25.25;13.50;;;23.00;32.90;;;;;;6131955;28;84246;-66
2022/04/14 01:28:00;;;;;;;23.75;13.38;;;23.00;32.90;;;;;;6132647;28;83380;-66
2022/04/14 01:31:01;;;;;;;22.15;12.82;;;23.00;32.90;;;;;;6111615;28;83025;-66
2022/04/14 01:34:01;;;;;;;22.45;13.32;;;23.00;32.80;;;;;;6108706;28;83127;-67
2022/04/14 01:37:02;;;;;;;20.75;12.55;;;23.00;32.80;;;;;;6108173;28;83086;-66
2022/04/14 01:40:03;;;;;;;21.98;12.65;;;23.00;32.80;;;;;;6120107;28;83390;-66
2022/04/14 01:43:04;;;;;;;21.42;12.32;;;23.00;33.00;;;;;;6131645;28;83077;-66
2022/04/14 01:46:08;;;;;;;25.35;13.30;;;23.00;32.90;;;;;;6112194;28;82904;-66
2022/04/14 01:49:09;;;;;;;24.17;13.35;;;23.00;32.80;;;;;;6107444;28;84145;-66
2022/04/14 01:52:09;;;;;;;21.63;12.07;;;23.00;32.70;;;;;;6107816;28;83173;-66
2022/04/14 01:55:10;;;;;;;24.00;13.13;;;23.10;32.80;;;;;;6102360;28;84163;-67
2022/04/14 01:58:10;;;;;;;21.80;11.80;;;23.10;32.70;;;;;;6115639;28;84589;-66
2022/04/14 02:01:11;;;;;;;26.10;13.20;;;23.10;32.80;;;;;;6114875;28;83192;-66
2022/04/14 02:04:11;;;;;;;20.13;11.50;;;23.10;32.80;;;;;;6108054;28;83464;-66
2022/04/14 02:07:13;;;;;;;20.77;11.48;;;23.20;32.90;;;;;;6107384;28;84085;-66
2022/04/14 02:10:14;;;;;;;23.40;12.70;;;23.20;33.00;;;;;;6107676;28;83243;-66
2022/04/14 02:13:18;;;;;;;24.83;12.43;;;23.20;33.00;;;;;;6107233;28;83081;-66
2022/04/14 02:16:18;;;;;;;20.45;11.98;;;23.20;33.10;;;;;;6114850;28;83023;-67
2022/04/14 02:19:19;;;;;;;21.50;11.45;;;23.20;33.10;;;;;;6130712;28;82933;-66
2022/04/14 02:22:27;;;;;;;22.13;12.13;;;23.20;33.10;;;;;;6126090;28;84037;-66
2022/04/14 02:25:27;;;;;;;20.77;12.05;;;23.20;33.10;;;;;;6130638;28;83391;-66
2022/04/14 02:28:28;;;;;;;20.08;11.77;;;23.20;33.10;;;;;;6130539;28;83486;-66
2022/04/14 02:31:28;;;;;;;21.35;11.55;;;23.20;33.20;;;;;;6115170;28;82911;-67
2022/04/14 02:34:29;;;;;;;19.08;10.77;;;23.20;33.20;;;;;;6106504;28;83080;-66
2022/04/14 02:37:29;;;;;;;17.08;11.10;;;23.20;33.10;;;;;;6106396;28;83611;-66
2022/04/14 02:40:31;;;;;;;20.60;11.63;;;23.20;33.20;;;;;;6112759;28;83990;-68
2022/04/14 02:43:32;;;;;;;21.05;11.77;;;23.20;33.10;;;;;;6106930;28;83469;-68
2022/04/14 02:46:32;;;;;;;21.85;12.18;;;23.20;33.10;;;;;;6115907;28;82994;-67
2022/04/14 02:49:33;;;;;;;20.02;11.73;;;23.20;33.10;;;;;;6130739;28;83011;-68
2022/04/14 02:52:33;;;;;;;19.90;11.20;;;23.20;33.10;;;;;;6129511;28;84269;-68
2022/04/14 02:55:34;;;;;;;21.70;11.65;;;23.20;33.10;;;;;;6126832;28;83368;-67
2022/04/14 02:58:35;;;;;;;21.33;11.07;;;23.20;33.10;;;;;;6117354;28;84251;-67
2022/04/14 03:01:35;;;;;;;18.05;10.70;;;23.20;33.10;;;;;;6106052;28;84283;-68
2022/04/14 03:04:36;;;;;;;18.77;11.52;;;23.20;33.00;;;;;;6113114;28;83050;-67
2022/04/14 03:07:36;;;;;;;21.48;11.77;;;23.20;33.00;;;;;;6130319;28;84620;-68
2022/04/14 03:10:37;;;;;;;23.80;11.40;;;23.20;32.90;;;;;;6130547;28;83303;-68
2022/04/14 03:13:38;;;;;;;22.42;11.63;;;23.20;33.00;;;;;;6130653;28;83641;-68
2022/04/14 03:16:38;;;;;;;20.92;11.18;;;23.10;32.80;;;;;;6130160;28;82882;-68
2022/04/14 03:19:39;;;;;;;20.77;12.32;;;23.10;32.80;;;;;;6124221;28;86424;-67
2022/04/14 03:22:40;;;;;;;20.48;12.38;;;23.10;32.70;;;;;;6110468;28;83003;-68
2022/04/14 03:25:40;;;;;;;20.95;11.57;;;23.10;32.70;;;;;;6110807;28;83311;-68
2022/04/14 03:28:41;;;;;;;22.60;12.52;;;23.10;32.70;;;;;;6110662;28;83208;-68
2022/04/14 03:31:41;;;;;;;21.00;11.63;;;23.10;32.70;;;;;;6117798;28;83272;-68
2022/04/14 03:34:42;;;;;;;18.52;11.32;;;23.00;32.70;;;;;;6134291;28;82729;-69
2022/04/14 03:37:42;;;;;;;24.35;12.20;;;23.10;32.70;;;;;;6120101;28;83116;-69
2022/04/14 03:40:43;;;;;;;23.13;12.48;;;23.10;32.70;;;;;;6110283;28;82983;-68
2022/04/14 03:43:43;;;;;;;21.67;11.60;;;23.00;32.60;;;;;;6130078;28;83584;-68
2022/04/14 03:46:44;;;;;;;19.98;11.23;;;23.00;32.60;;;;;;6133108;28;82826;-68
2022/04/14 03:49:44;;;;;;;20.88;12.15;;;23.00;32.60;;;;;;6131236;28;85021;-68
2022/04/14 03:52:45;;;;;;;22.48;11.45;;;23.00;32.70;;;;;;6121186;28;84177;-69
2022/04/14 03:55:48;;;;;;;18.90;11.43;;;23.00;32.60;;;;;;6131987;28;84624;-70
2022/04/14 03:58:49;;;;;;;20.50;10.77;;;23.00;33.00;;;;;;6112006;28;83056;-69
2022/04/14 04:01:49;;;;;;;19.73;12.10;;;23.00;32.90;;;;;;6112209;28;83532;-70
2022/04/14 04:04:50;;;;;;;20.30;11.63;;;23.00;33.10;;;;;;6133647;28;83219;-67
2022/04/14 04:07:50;;;;;;;22.58;11.63;;;23.00;33.30;;;;;;6133758;28;82938;-67
2022/04/14 04:10:51;;;;;;;20.27;11.45;;;23.10;34.00;;;;;;6133655;28;83895;-69
2022/04/14 04:13:51;;;;;;;21.45;10.90;;;23.10;34.00;;;;;;6115946;28;83176;-69
2022/04/14 04:16:52;;;;;;;23.65;11.18;;;23.10;34.20;;;;;;6119827;28;82836;-70
2022/04/14 04:19:52;;;;;;;20.80;10.07;;;23.10;34.30;;;;;;6130527;28;83545;-70
2022/04/14 04:22:53;;;;;;;17.05;8.88;;;23.10;35.40;;;;;;6123729;28;85041;-69
2022/04/14 04:25:53;;;;;;;18.45;9.45;;;23.10;35.90;;;;;;6112948;28;83302;-71
2022/04/14 04:28:54;;;;;;;16.88;9.32;;;23.10;36.50;;;;;;6112516;28;80449;-70
2022/04/14 04:31:54;;;;;;;16.27;8.43;;;23.10;36.60;;;;;;6132500;28;80544;-69
2022/04/14 04:34:55;;;;;;;17.75;8.60;;;23.10;36.90;;;;;;6113281;28;80827;-67
2022/04/14 04:37:55;;;;;;;15.95;8.75;;;23.10;36.60;;;;;;6118869;28;80556;-70
2022/04/14 04:40:58;;;;;;;18.83;10.10;;;23.10;36.80;;;;;;6136830;28;80708;-69
2022/04/14 04:43:59;;;;;;;17.35;9.07;;;23.10;36.80;;;;;;6130266;28;83279;-68
2022/04/14 04:46:59;;;;;;;17.45;8.95;;;23.20;36.50;;;;;;6136008;28;81581;-69
2022/04/14 04:50:00;;;;;;;23.33;9.95;;;23.10;36.30;;;;;;6114795;28;80406;-71
2022/04/14 04:53:00;;;;;;;28.92;10.00;;;23.20;36.70;;;;;;6117413;28;80445;-76
2022/04/14 04:56:01;;;;;;;20.58;9.80;;;23.20;36.50;;;;;;6133606;28;82940;-71
2022/04/14 04:59:02;;;;;;;17.40;9.82;;;23.20;36.50;;;;;;6136151;28;83493;-69
2022/04/14 05:02:02;;;;;;;15.88;8.63;;;23.20;36.60;;;;;;6128467;28;83071;-70
2022/04/14 05:05:03;;;;;;;19.60;9.77;;;23.20;36.70;;;;;;6131523;28;80287;-70
2022/04/14 05:08:05;;;;;;;21.40;9.30;;;23.20;36.50;;;;;;6134896;28;80442;-70
2022/04/14 05:11:06;;;;;;;24.55;9.88;;;23.20;36.50;;;;;;6132282;28;81488;-72
2022/04/14 05:14:08;;;;;;;21.63;10.27;;;23.20;36.50;;;;;;6124254;28;80574;-76
2022/04/14 05:17:08;;;;;;;18.38;9.77;;;23.20;36.30;;;;;;6132378;28;83332;-75
2022/04/14 05:20:09;;;;;;;21.13;10.75;;;23.20;36.20;;;;;;6135733;28;84657;-80
2022/04/14 05:23:09;;;;;;;24.48;11.05;;;23.20;36.20;;;;;;6132249;28;83194;-74
2022/04/14 05:26:10;;;;;;;24.25;10.35;;;23.30;36.00;;;;;;6131445;28;89833;-71
2022/04/14 05:29:11;;;;;;;23.52;10.93;;;23.20;36.00;;;;;;6123903;28;84661;-67
2022/04/14 05:32:11;;;;;;;24.83;9.98;;;23.30;36.30;;;;;;6132300;28;83012;-67
2022/04/14 05:35:12;;;;;;;18.35;9.70;;;23.20;36.20;;;;;;6132523;28;83406;-69
2022/04/14 05:38:12;;;;;;;16.10;9.43;;;23.30;36.40;;;;;;6134823;28;83155;-69
2022/04/14 05:41:13;;;;;;;19.38;10.55;;;23.30;36.30;;;;;;6133787;28;80865;-69
2022/04/14 05:44:13;;;;;;;22.13;10.20;;;23.30;36.80;;;;;;6131541;28;82798;-69
2022/04/14 05:47:14;;;;;;;20.08;9.95;;;23.30;36.70;;;;;;6130650;28;83009;-69
2022/04/14 05:50:14;;;;;;;19.20;9.45;;;23.30;36.40;;;;;;6134530;28;82752;-69
2022/04/14 05:53:15;;;;;;;18.52;10.10;;;23.30;36.30;;;;;;6134022;28;80308;-68
2022/04/14 05:56:17;;;;;;;17.60;9.90;;;23.30;36.30;;;;;;6128612;28;83098;-68
2022/04/14 05:59:17;;;;;;;20.23;10.88;;;23.30;36.30;;;;;;6131252;28;83071;-68
2022/04/14 06:02:18;;;;;;;21.60;10.07;;;23.30;36.10;;;;;;6130429;28;83253;-67
2022/04/14 06:05:19;;;;;;;20.10;10.15;;;23.30;36.00;;;;;;6130158;28;82899;-68
2022/04/14 06:08:20;;;;;;;19.95;9.75;;;23.30;35.80;;;;;;6115820;28;83360;-68
2022/04/14 06:11:20;;;;;;;26.42;10.63;;;23.30;36.00;;;;;;6111768;28;83433;-68
2022/04/14 06:14:21;;;;;;;21.33;10.57;;;23.30;36.00;;;;;;6127850;28;83070;-68
2022/04/14 06:17:22;;;;;;;18.17;9.45;;;23.30;35.90;;;;;;6120749;28;83442;-71
2022/04/14 06:20:22;;;;;;;21.42;9.70;;;23.40;35.90;;;;;;6120073;28;82926;-72
2022/04/14 06:23:23;;;;;;;20.98;10.55;;;23.30;35.40;;;;;;6131167;28;80465;-75
2022/04/14 06:26:23;;;;;;;17.25;9.27;;;23.40;35.40;;;;;;6114105;28;84321;-77
2022/04/14 06:29:24;;;;;;;18.05;10.32;;;23.30;35.40;;;;;;6128077;28;84371;-75
2022/04/14 06:32:24;;;;;;;22.73;10.43;;;23.30;35.30;;;;;;6124176;28;83198;-74
2022/04/14 06:35:25;;;;;;;20.02;10.38;;;23.30;35.20;;;;;;6115761;28;82997;-77
2022/04/14 06:38:27;;;;;;;21.98;9.52;;;23.30;35.20;;;;;;6107954;28;82867;-71
2022/04/14 06:41:27;;;;;;;20.73;10.98;;;23.30;35.30;;;;;;6111997;28;83091;-78
2022/04/14 06:44:28;;;;;;;17.70;9.25;;;23.40;35.20;;;;;;6126143;28;83133;-75
2022/04/14 06:47:28;;;;;;;31.30;9.57;;;23.30;34.90;;;;;;6123354;28;82094;-74
2022/04/14 06:50:29;;;;;;;18.95;9.70;;;23.40;34.80;;;;;;6124999;28;80730;-76
2022/04/14 06:53:29;;;;;;;19.42;9.98;;;23.40;34.80;;;;;;6119798;28;80835;-74
2022/04/14 06:56:30;;;;;;;20.73;10.38;;;23.40;34.70;;;;;;6125688;28;83057;-75
2022/04/14 06:59:31;;;;;;;21.65;10.55;;;23.40;34.70;;;;;;6115623;28;83507;-73
2022/04/14 07:02:31;;;;;;;20.13;10.10;;;23.40;34.60;;;;;;6121393;28;83382;-74
2022/04/14 07:05:32;;;;;;;26.45;11.27;;;23.40;34.60;;;;;;6127322;28;83064;-76
2022/04/14 07:08:33;;;;;;;18.80;10.30;;;23.40;34.50;;;;;;6127072;28;83364;-75
2022/04/14 07:11:33;;;;;;;24.13;11.23;;;23.50;34.60;;;;;;6111803;28;83160;-75
2022/04/14 07:14:34;;;;;;;23.67;10.90;;;23.50;34.60;;;;;;6111779;28;83065;-75
2022/04/14 07:17:36;;;;;;;27.55;10.98;;;23.40;34.50;;;;;;6119746;28;83496;-78
2022/04/14 07:20:37;;;;;;;23.77;9.93;;;23.50;34.50;;;;;;6120135;28;83009;-77
2022/04/14 07:23:38;;;;;;;20.75;10.52;;;23.50;34.50;;;;;;6115178;28;83618;-79
2022/04/14 07:26:38;;;;;;;24.85;12.27;;;23.50;34.70;;;;;;6111458;28;83017;-74
2022/04/14 07:29:39;;;;;;;21.88;10.52;;;23.50;35.00;;;;;;6112358;28;83260;-77
2022/04/14 07:32:39;;;;;;;19.45;10.40;;;23.50;35.40;;;;;;6134793;28;82858;-74
2022/04/14 07:35:40;;;;;;;19.80;10.30;;;23.50;35.90;;;;;;6134565;28;89660;-71
2022/04/14 07:38:41;;;;;;;21.80;10.77;;;23.50;35.90;;;;;;6134409;28;83145;-77
2022/04/14 07:41:41;;;;;;;28.42;10.45;;;23.50;35.80;;;;;;6111908;28;83543;-72
2022/04/14 07:44:42;;;;;;;24.45;10.25;;;23.60;35.70;;;;;;6119393;28;84327;-75
2022/04/14 07:47:43;;;;;;;18.27;9.05;;;23.60;36.30;;;;;;6135566;28;82862;-74
2022/04/14 07:50:43;;;;;;;24.52;10.52;;;23.50;35.70;;;;;;6121948;28;83148;-78
2022/04/14 07:53:44;;;;;;;20.05;10.82;;;23.60;35.80;;;;;;6111026;28;82721;-74
2022/04/14 07:56:45;;;;;;;21.67;10.52;;;23.60;35.70;;;;;;6115755;28;83516;-78
2022/04/14 07:59:45;;;;;;;23.20;11.60;;;23.60;36.10;;;;;;6132729;28;84063;-70
2022/04/14 08:02:46;;;;;;;21.13;11.25;;;23.50;36.00;;;;;;6134832;28;84155;-73
2022/04/14 08:05:48;;;;;;;31.23;11.13;;;23.60;36.00;;;;;;6136345;28;83140;-81
2022/04/14 08:08:49;;;;;;;32.83;12.27;;;23.60;35.80;;;;;;6136402;28;83513;-81
2022/04/14 08:11:49;;;;;;;31.80;12.32;;;23.60;35.80;;;;;;6114911;28;83314;-76
2022/04/14 08:18:16;;;;;;;34.67;11.27;;;23.70;35.70;;;;;;6131521;28;83556;-79
2022/04/14 08:21:16;;;;;;;40.20;13.15;;;23.70;35.70;;;;;;6119785;28;83153;-73
2022/04/14 08:24:17;;;;;;;27.83;11.57;;;23.70;35.70;;;;;;6110968;28;83149;-76
2022/04/14 08:27:18;;;;;;;29.17;12.60;;;23.70;35.70;;;;;;6120315;28;83461;-78
2022/04/14 08:30:18;;;;;;;22.52;11.35;;;23.80;35.90;;;;;;6131386;28;84704;-78
2022/04/14 08:33:20;;;;;;;27.52;10.20;;;24.00;35.80;;;;;;6110126;28;82918;-76
2022/04/14 08:36:21;;;;;;;26.45;11.38;;;24.00;35.80;;;;;;6123852;28;88351;-75
2022/04/14 08:39:22;;;;;;;21.77;11.32;;;24.20;35.80;;;;;;6135292;28;83212;-79
2022/04/14 08:42:23;;;;;;;20.90;10.52;;;24.20;35.80;;;;;;6113494;28;83111;-78
2022/04/14 08:45:25;;;;;;;19.85;10.40;;;24.30;35.80;;;;;;6129493;28;82899;-80
2022/04/14 08:48:26;;;;;;;20.08;8.95;;;24.30;35.80;;;;;;6111405;28;82911;-78
2022/04/14 08:51:26;;;;;;;17.92;9.50;;;24.40;35.90;;;;;;6113033;28;85121;-81
2022/04/14 08:54:27;;;;;;;26.23;8.82;;;24.40;35.80;;;;;;6112481;28;81714;-79
2022/04/14 08:57:27;;;;;;;14.82;8.70;;;24.40;35.80;;;;;;6126155;28;80501;-78
2022/04/14 09:00:28;;;;;;;18.77;8.30;;;24.50;35.90;;;;;;6115665;28;80525;-76
2022/04/14 09:03:29;;;;;;;20.05;8.85;;;24.50;35.80;;;;;;6136869;28;80533;-78
2022/04/14 09:06:31;;;;;;;18.73;8.50;;;24.60;35.80;;;;;;6127511;28;80602;-78
2022/04/14 09:09:32;;;;;;;16.55;7.95;;;24.50;35.80;;;;;;6112956;28;80819;-77
2022/04/14 09:12:32;;;;;;;14.32;7.72;;;24.40;35.90;;;;;;6130673;28;80120;-81
2022/04/14 09:15:33;;;;;;;15.23;7.88;;;24.40;36.00;;;;;;6135931;28;80444;-82
2022/04/14 09:18:34;;;;;;;17.45;7.38;;;24.40;36.00;;;;;;6113204;28;80451;-76
2022/04/14 09:21:34;;;;;;;23.23;8.32;;;24.30;36.30;;;;;;6112865;28;81034;-74
2022/04/14 09:24:35;;;;;;;20.60;7.93;;;24.30;36.80;;;;;;6112428;28;80223;-76
2022/04/14 09:27:39;;;;;;;23.88;8.15;;;24.30;37.70;;;;;;6112859;28;80660;-73
2022/04/14 09:30:40;;;;;;;24.15;8.52;;;24.40;37.60;;;;;;6129097;28;80497;-77
2022/04/14 09:33:40;;;;;;;17.20;7.78;;;24.40;36.90;;;;;;6127744;28;81796;-77
2022/04/14 09:36:41;;;;;;;42.25;10.82;;;24.40;36.90;;;;;;6113000;28;80959;-75
2022/04/14 09:39:41;;;;;;;33.80;9.15;;;24.40;38.60;;;;;;6109835;28;83133;-82
2022/04/14 09:42:42;;;;;;;25.02;8.48;;;24.40;37.90;;;;;;6112037;28;84410;-73
2022/04/14 09:45:42;;;;;;;23.10;7.38;;;24.40;37.70;;;;;;6134468;28;81858;-74
2022/04/14 09:48:44;;;;;;;16.73;7.03;;;24.40;37.40;;;;;;6134412;28;80729;-75
2022/04/14 09:51:44;;;;;;;12.25;6.07;;;24.40;36.90;;;;;;6115793;28;81054;-74
2022/04/14 09:54:45;;;;;;;18.17;6.97;;;24.40;36.30;;;;;;6116438;28;80643;-73
2022/04/14 09:57:46;;;;;;;14.88;6.80;;;24.30;36.20;;;;;;6120621;28;80884;-68
2022/04/14 10:00:46;;;;;;;15.15;7.88;;;24.40;36.00;;;;;;6121482;28;80267;-67
2022/04/14 10:03:51;;;;;;;19.75;8.00;;;24.30;35.50;;;;;;6126360;28;80274;-70
2022/04/14 10:06:51;;;;;;;15.75;7.18;;;24.20;35.60;;;;;;6124680;28;82066;-73
2022/04/14 10:09:52;;;;;;;13.73;6.70;;;24.30;35.70;;;;;;6112912;28;80220;-70
2022/04/14 10:12:52;;;;;;;15.95;6.85;;;24.30;35.80;;;;;;6117543;28;80331;-72
2022/04/14 10:15:55;;;;;;;12.23;6.90;;;24.30;35.50;;;;;;6126701;28;81390;-71
2022/04/14 10:18:55;;;;;;;14.02;6.75;;;24.30;35.40;;;;;;6119429;28;80887;-75
2022/04/14 10:21:56;;;;;;;13.77;6.35;;;24.30;35.40;;;;;;6116510;28;83560;-73
2022/04/14 10:24:56;;;;;;;12.32;6.22;;;24.30;35.30;;;;;;6111209;28;80360;-69
2022/04/14 10:27:57;;;;;;;15.73;7.05;;;24.40;35.30;;;;;;6126414;28;80495;-71
2022/04/14 10:30:58;;;;;;;22.65;7.50;;;24.40;35.30;;;;;;6133706;28;80529;-70
2022/04/14 10:33:59;;;;;;;16.02;7.85;;;24.40;35.70;;;;;;6119192;28;80356;-72
2022/04/14 10:37:00;;;;;;;25.88;7.97;;;24.40;36.10;;;;;;6110753;28;80761;-71
2022/04/14 10:40:01;;;;;;;22.00;8.43;;;24.40;36.30;;;;;;6111057;28;80111;-72
2022/04/14 10:43:01;;;;;;;17.80;7.10;;;24.40;36.80;;;;;;6109013;28;80510;-70
2022/04/14 10:46:02;;;;;;;13.32;6.72;;;24.40;37.30;;;;;;6109335;28;81611;-74
2022/04/14 10:49:02;;;;;;;17.17;6.85;;;24.40;38.40;;;;;;6109428;28;84580;-72
2022/04/14 10:52:03;;;;;;;12.27;6.38;;;24.50;39.20;;;;;;6126704;28;80567;-76
2022/04/14 10:55:03;;;;;;;12.52;6.38;;;24.50;39.80;;;;;;6135403;28;80411;-79
2022/04/14 10:58:04;;;;;;;14.52;6.80;;;24.40;40.60;;;;;;6130454;28;80435;-75
2022/04/14 11:01:04;;;;;;;13.57;6.05;;;24.40;39.70;;;;;;6135413;28;81826;-74
2022/04/14 11:04:05;;;;;;;9.45;5.55;;;24.40;40.40;;;;;;6133699;28;81653;-72
2022/04/14 11:07:05;;;;;;;11.15;5.55;;;24.40;40.80;;;;;;6134355;28;80354;-72
2022/04/14 11:10:06;;;;;;;11.85;5.35;;;24.40;41.60;;;;;;6116620;28;81790;-78
2022/04/14 11:13:06;;;;;;;12.80;6.22;;;24.50;42.60;;;;;;6131734;28;81534;-69
2022/04/14 11:16:07;;;;;;;11.43;5.25;;;24.50;41.80;;;;;;6120009;28;81805;-70
2022/04/14 11:19:07;;;;;;;14.15;5.07;;;24.50;41.10;;;;;;6124486;28;80943;-70
2022/04/14 11:22:08;;;;;;;10.80;5.35;;;24.50;40.20;;;;;;6114721;28;80762;-69
2022/04/14 11:25:09;;;;;;;17.40;6.47;;;24.50;39.60;;;;;;6116797;28;80484;-68
2022/04/14 11:28:09;;;;;;;31.88;14.02;;;24.50;39.10;;;;;;6109848;28;80734;-72
2022/04/14 11:31:10;;;;;;;55.78;20.75;;;24.50;38.60;;;;;;6130515;28;83315;-71
2022/04/14 11:34:12;;;;;;;61.45;25.85;;;24.60;38.60;;;;;;6130239;28;83236;-73
2022/04/14 11:37:13;;;;;;;77.60;31.77;;;24.60;38.30;;;;;;6108130;28;83080;-73
2022/04/14 11:40:13;;;;;;;87.10;32.63;;;24.50;38.00;;;;;;6109227;28;83463;-71
2022/04/14 11:43:15;;;;;;;74.03;32.13;;;24.60;37.50;;;;;;6122601;28;83043;-70
2022/04/14 11:46:15;;;;;;;92.63;34.80;;;24.60;37.40;;;;;;6132345;28;83509;-70
2022/04/14 11:49:18;;;;;;;95.43;41.03;;;24.60;37.60;;;;;;6130745;28;84073;-77
2022/04/14 11:52:18;;;;;;;97.28;38.70;;;24.60;37.60;;;;;;6132392;28;82954;-75
2022/04/14 11:55:19;;;;;;;80.43;32.90;;;24.60;37.60;;;;;;6141050;28;83954;-77
2022/04/14 11:58:20;;;;;;;67.95;28.35;;;24.60;36.60;;;;;;6134097;28;83104;-70
2022/04/14 12:01:20;;;;;;;57.22;25.20;;;24.60;37.10;;;;;;6133644;28;83939;-71
2022/04/14 12:04:21;;;;;;;53.85;20.95;;;24.60;37.20;;;;;;6134439;28;83356;-72
2022/04/14 12:07:21;;;;;;;41.38;16.73;;;24.70;37.30;;;;;;6133176;28;83645;-71
2022/04/14 12:10:22;;;;;;;32.08;14.60;;;24.70;37.30;;;;;;6129400;28;84345;-68
2022/04/14 12:13:24;;;;;;;31.60;12.43;;;24.70;37.20;;;;;;6109558;28;84721;-69
2022/04/14 12:16:27;;;;;;;23.50;9.77;;;24.70;37.10;;;;;;6133248;28;83095;-71
2022/04/14 12:19:28;;;;;;;18.15;8.02;;;24.70;37.00;;;;;;6137001;28;83909;-72
2022/04/14 12:22:28;;;;;;;17.67;7.53;;;24.70;36.90;;;;;;6137624;28;80362;-70
2022/04/14 12:25:29;;;;;;;16.23;6.85;;;24.70;36.40;;;;;;6137243;28;80815;-70
2022/04/14 12:28:30;;;;;;;14.95;6.20;;;24.80;36.60;;;;;;6129349;28;80390;-71
2022/04/14 12:31:30;;;;;;;8.30;5.25;;;24.80;36.80;;;;;;6113481;28;80208;-72
2022/04/14 12:34:31;;;;;;;10.90;4.78;;;24.80;36.70;;;;;;6113354;28;80764;-71
2022/04/14 12:37:32;;;;;;;8.02;4.75;;;24.80;36.60;;;;;;6113172;28;81494;-71
2022/04/14 12:40:32;;;;;;;16.92;4.38;;;24.80;36.40;;;;;;6127329;28;81622;-72
2022/04/14 12:43:33;;;;;;;7.63;3.90;;;24.80;36.70;;;;;;6130263;28;80465;-72
2022/04/14 12:46:34;;;;;;;9.10;4.18;;;24.80;36.70;;;;;;6121662;28;81527;-73
2022/04/14 12:49:34;;;;;;;6.93;3.60;;;24.80;36.70;;;;;;6135194;28;80782;-75
2022/04/14 12:52:35;;;;;;;6.68;4.22;;;24.80;36.70;;;;;;6131700;28;80435;-74
2022/04/14 12:55:35;;;;;;;12.95;4.43;;;24.80;36.70;;;;;;6122621;28;80983;-73
2022/04/14 12:58:36;;;;;;;5.75;3.63;;;24.80;36.70;;;;;;6112901;28;80808;-71
2022/04/14 13:01:36;;;;;;;5.63;3.95;;;24.80;36.60;;;;;;6126190;28;80426;-74
2022/04/14 13:04:37;;;;;;;7.78;3.65;;;24.80;36.60;;;;;;6136770;28;80652;-71
2022/04/14 13:07:38;;;;;;;5.25;3.47;;;24.90;36.60;;;;;;6134359;28;81643;-71
2022/04/14 13:10:38;;;;;;;6.10;3.40;;;24.90;36.40;;;;;;6126301;28;80530;-71
2022/04/14 13:13:39;;;;;;;7.57;3.30;;;24.80;36.50;;;;;;6132706;28;81091;-72
2022/04/14 13:16:39;;;;;;;11.68;4.07;;;24.90;36.60;;;;;;6130667;28;80586;-71
2022/04/14 13:19:41;;;;;;;6.60;3.65;;;24.80;36.50;;;;;;6136139;28;80403;-71
2022/04/14 13:22:42;;;;;;;8.60;4.15;;;24.90;36.50;;;;;;6135512;28;80448;-71
2022/04/14 13:25:42;;;;;;;10.50;3.92;;;24.90;36.60;;;;;;6133572;28;80584;-70
2022/04/14 13:28:43;;;;;;;9.45;3.97;;;24.90;36.60;;;;;;6135771;28;82602;-71
2022/04/14 13:31:43;;;;;;;10.98;3.78;;;24.90;36.30;;;;;;6136535;28;81166;-72
2022/04/14 13:34:44;;;;;;;7.68;3.50;;;24.90;36.40;;;;;;6134256;28;83000;-70
2022/04/14 13:37:44;;;;;;;8.02;4.65;;;24.90;36.40;;;;;;6135262;28;81881;-70
2022/04/14 13:40:45;;;;;;;6.25;3.97;;;24.80;35.50;;;;;;6116636;28;80430;-71
2022/04/14 13:43:45;;;;;;;8.18;3.80;;;24.80;36.20;;;;;;6115747;28;80908;-69
2022/04/14 13:46:46;;;;;;;9.85;3.83;;;24.80;36.20;;;;;;6135909;28;80476;-69
2022/04/14 13:49:47;;;;;;;8.02;3.83;;;24.80;36.40;;;;;;6135294;28;80377;-66
2022/04/14 13:52:47;;;;;;;7.35;3.58;;;24.80;36.40;;;;;;6134270;28;81701;-69
2022/04/14 13:55:48;;;;;;;15.57;4.40;;;24.80;36.30;;;;;;6135136;28;81706;-75
2022/04/14 13:58:48;;;;;;;6.55;3.42;;;24.80;36.30;;;;;;6122125;28;81403;-67
2022/04/14 14:01:49;;;;;;;8.50;4.13;;;24.80;36.00;;;;;;6120917;28;80517;-68
2022/04/14 14:04:49;;;;;;;5.55;3.60;;;24.80;36.40;;;;;;6133097;28;81954;-70
2022/04/14 14:07:51;;;;;;;9.38;4.35;;;24.80;36.30;;;;;;6120061;28;80147;-67
2022/04/14 14:10:51;;;;;;;9.18;3.90;;;24.80;36.50;;;;;;6135374;28;80425;-68
2022/04/14 14:13:52;;;;;;;7.30;4.18;;;24.90;36.50;;;;;;6135250;28;80882;-68
2022/04/14 14:16:52;;;;;;;6.40;3.95;;;24.80;36.30;;;;;;6134787;28;81502;-68
2022/04/14 14:19:53;;;;;;;10.30;3.90;;;24.80;36.20;;;;;;6114863;28;80714;-67
2022/04/14 14:22:53;;;;;;;8.27;3.80;;;24.80;36.20;;;;;;6111502;28;80677;-67
2022/04/14 14:25:54;;;;;;;7.15;3.92;;;24.80;36.30;;;;;;6111035;28;81587;-67
2022/04/14 14:28:54;;;;;;;8.55;4.55;;;24.80;36.00;;;;;;6116983;28;80323;-69
2022/04/14 14:31:55;;;;;;;8.05;3.92;;;24.80;36.40;;;;;;6134194;28;80391;-69
2022/04/14 14:34:55;;;;;;;9.32;4.18;;;24.80;37.20;;;;;;6131250;28;80652;-72
2022/04/14 14:37:56;;;;;;;9.95;4.07;;;24.90;37.20;;;;;;6134495;28;80444;-69
2022/04/14 14:40:57;;;;;;;7.32;3.97;;;24.80;37.00;;;;;;6134416;28;80578;-68
2022/04/14 14:43:58;;;;;;;7.35;3.70;;;24.80;37.30;;;;;;6134249;28;80191;-69
2022/04/14 14:46:59;;;;;;;8.98;5.20;;;24.90;37.40;;;;;;6128178;28;80670;-69
2022/04/14 14:49:59;;;;;;;26.33;10.13;;;24.90;36.70;;;;;;6118413;28;81001;-71
2022/04/14 14:53:00;;;;;;;36.88;17.27;;;24.80;35.20;;;;;;6127291;28;82866;-67
2022/04/14 14:56:00;;;;;;;45.13;19.30;;;24.80;35.90;;;;;;6115633;28;84420;-68
2022/04/14 14:59:13;;;;;;;46.10;20.90;;;24.80;36.20;;;;;;6123992;28;83311;-68
2022/04/14 15:02:14;;;;;;;41.45;18.42;;;24.80;36.70;;;;;;6130901;28;83189;-70
2022/04/14 15:05:14;;;;;;;41.72;18.67;;;24.80;36.70;;;;;;6130964;28;84722;-71
2022/04/14 15:08:15;;;;;;;33.10;15.00;;;24.80;36.90;;;;;;6130691;28;82861;-72
2022/04/14 15:11:15;;;;;;;35.45;14.68;;;24.80;36.40;;;;;;6131186;28;83082;-75
2022/04/14 15:14:16;;;;;;;40.45;16.58;;;24.80;36.80;;;;;;6132343;28;83189;-68
2022/04/14 15:17:16;;;;;;;32.75;15.20;;;24.80;37.10;;;;;;6134978;28;83454;-66
2022/04/14 15:20:17;;;;;;;32.65;14.50;;;24.80;36.40;;;;;;6135205;28;83366;-68
2022/04/14 15:23:17;;;;;;;29.67;14.05;;;24.80;36.70;;;;;;6134682;28;82912;-67
2022/04/14 15:26:18;;;;;;;22.95;12.55;;;24.80;36.80;;;;;;6135048;28;83554;-68